sensor_id;sensor_type;location;lat;lon;timestamp;P1;durP1;ratioP1;P2;durP2;ratioP2
76196;SDS011;64974;53.144;17.962;2022-12-29T00:02:08;12.93;;;6.95;;
76196;SDS011;64974;53.144;17.962;2022-12-29T00:04:33;14.10;;;6.10;;
76196;SDS011;64974;53.144;17.962;2022-12-29T00:06:59;10.90;;;6.45;;
76196;SDS011;64974;53.144;17.962;2022-12-29T00:09:25;14.27;;;6.47;;
76196;SDS011;64974;53.144;17.962;2022-12-29T00:11:50;13.43;;;7.25;;
76196;SDS011;64974;53.144;17.962;2022-12-29T00:14:16;12.27;;;6.88;;
76196;SDS011;64974;53.144;17.962;2022-12-29T00:17:00;13.48;;;6.43;;
76196;SDS011;64974;53.144;17.962;2022-12-29T00:19:26;15.82;;;6.68;;
76196;SDS011;64974;53.144;17.962;2022-12-29T00:22:10;14.63;;;6.65;;
76196;SDS011;64974;53.144;17.962;2022-12-29T00:24:55;13.73;;;7.47;;
76196;SDS011;64974;53.144;17.962;2022-12-29T00:27:30;12.80;;;7.38;;
76196;SDS011;64974;53.144;17.962;2022-12-29T00:30:19;16.35;;;7.50;;
76196;SDS011;64974;53.144;17.962;2022-12-29T00:33:11;13.00;;;7.47;;
76196;SDS011;64974;53.144;17.962;2022-12-29T00:36:00;14.32;;;7.25;;
76196;SDS011;64974;53.144;17.962;2022-12-29T00:38:27;14.52;;;7.45;;
76196;SDS011;64974;53.144;17.962;2022-12-29T00:41:13;14.82;;;7.28;;
76196;SDS011;64974;53.144;17.962;2022-12-29T00:43:56;13.18;;;7.05;;
76196;SDS011;64974;53.144;17.962;2022-12-29T00:46:34;16.95;;;6.90;;
76196;SDS011;64974;53.144;17.962;2022-12-29T00:49:01;15.07;;;7.63;;
76196;SDS011;64974;53.144;17.962;2022-12-29T00:51:45;13.70;;;7.63;;
76196;SDS011;64974;53.144;17.962;2022-12-29T00:54:11;12.85;;;6.60;;
76196;SDS011;64974;53.144;17.962;2022-12-29T00:56:36;13.38;;;6.78;;
76196;SDS011;64974;53.144;17.962;2022-12-29T00:59:03;14.25;;;6.95;;
76196;SDS011;64974;53.144;17.962;2022-12-29T01:01:30;14.65;;;7.13;;
76196;SDS011;64974;53.144;17.962;2022-12-29T01:03:55;14.13;;;7.25;;
76196;SDS011;64974;53.144;17.962;2022-12-29T01:06:21;14.98;;;7.65;;
76196;SDS011;64974;53.144;17.962;2022-12-29T01:08:46;13.38;;;7.63;;
76196;SDS011;64974;53.144;17.962;2022-12-29T01:11:32;14.02;;;7.28;;
76196;SDS011;64974;53.144;17.962;2022-12-29T01:13:57;14.10;;;7.80;;
76196;SDS011;64974;53.144;17.962;2022-12-29T01:16:22;14.17;;;7.37;;
76196;SDS011;64974;53.144;17.962;2022-12-29T01:18:47;16.17;;;7.70;;
76196;SDS011;64974;53.144;17.962;2022-12-29T01:21:13;18.60;;;7.30;;
76196;SDS011;64974;53.144;17.962;2022-12-29T01:23:38;14.43;;;6.97;;
76196;SDS011;64974;53.144;17.962;2022-12-29T01:26:10;13.23;;;6.87;;
76196;SDS011;64974;53.144;17.962;2022-12-29T01:28:36;14.50;;;7.07;;
76196;SDS011;64974;53.144;17.962;2022-12-29T01:31:04;11.68;;;6.43;;
76196;SDS011;64974;53.144;17.962;2022-12-29T01:33:30;10.50;;;6.13;;
76196;SDS011;64974;53.144;17.962;2022-12-29T01:35:59;11.73;;;6.68;;
76196;SDS011;64974;53.144;17.962;2022-12-29T01:38:25;12.13;;;6.75;;
76196;SDS011;64974;53.144;17.962;2022-12-29T01:40:50;12.52;;;6.57;;
76196;SDS011;64974;53.144;17.962;2022-12-29T01:43:16;12.40;;;6.82;;
76196;SDS011;64974;53.144;17.962;2022-12-29T01:45:43;12.87;;;6.57;;
76196;SDS011;64974;53.144;17.962;2022-12-29T01:48:12;12.18;;;6.35;;
76196;SDS011;64974;53.144;17.962;2022-12-29T01:50:39;12.23;;;6.32;;
76196;SDS011;64974;53.144;17.962;2022-12-29T01:53:13;12.68;;;6.25;;
76196;SDS011;64974;53.144;17.962;2022-12-29T01:56:03;11.77;;;6.35;;
76196;SDS011;64974;53.144;17.962;2022-12-29T01:58:29;13.30;;;5.72;;
76196;SDS011;64974;53.144;17.962;2022-12-29T04:01:11;8.13;;;4.55;;
76196;SDS011;64974;53.144;17.962;2022-12-29T04:03:37;9.52;;;4.53;;
76196;SDS011;64974;53.144;17.962;2022-12-29T04:06:03;9.00;;;4.78;;
76196;SDS011;64974;53.144;17.962;2022-12-29T04:08:28;9.18;;;5.10;;
76196;SDS011;64974;53.144;17.962;2022-12-29T04:10:53;9.63;;;5.40;;
76196;SDS011;64974;53.144;17.962;2022-12-29T04:13:19;10.10;;;5.15;;
76196;SDS011;64974;53.144;17.962;2022-12-29T04:15:44;7.23;;;4.67;;
76196;SDS011;64974;53.144;17.962;2022-12-29T04:18:10;11.15;;;4.93;;
76196;SDS011;64974;53.144;17.962;2022-12-29T04:20:36;8.48;;;4.63;;
76196;SDS011;64974;53.144;17.962;2022-12-29T04:23:20;9.13;;;4.90;;
76196;SDS011;64974;53.144;17.962;2022-12-29T04:25:46;7.95;;;4.57;;
76196;SDS011;64974;53.144;17.962;2022-12-29T04:28:12;8.32;;;4.63;;
76196;SDS011;64974;53.144;17.962;2022-12-29T04:30:38;11.20;;;4.68;;
76196;SDS011;64974;53.144;17.962;2022-12-29T04:33:03;9.75;;;3.80;;
76196;SDS011;64974;53.144;17.962;2022-12-29T04:35:28;11.85;;;4.18;;
76196;SDS011;64974;53.144;17.962;2022-12-29T04:37:54;9.27;;;4.20;;
76196;SDS011;64974;53.144;17.962;2022-12-29T04:40:19;6.10;;;4.22;;
76196;SDS011;64974;53.144;17.962;2022-12-29T04:42:44;7.40;;;3.72;;
76196;SDS011;64974;53.144;17.962;2022-12-29T04:45:10;7.72;;;3.97;;
76196;SDS011;64974;53.144;17.962;2022-12-29T04:47:35;7.43;;;3.63;;
76196;SDS011;64974;53.144;17.962;2022-12-29T04:50:01;8.63;;;4.28;;
76196;SDS011;64974;53.144;17.962;2022-12-29T04:52:26;10.85;;;3.97;;
76196;SDS011;64974;53.144;17.962;2022-12-29T04:54:51;10.65;;;4.55;;
76196;SDS011;64974;53.144;17.962;2022-12-29T04:57:17;9.18;;;4.05;;
76196;SDS011;64974;53.144;17.962;2022-12-29T04:59:42;8.35;;;4.60;;
76196;SDS011;64974;53.144;17.962;2022-12-29T05:02:07;6.82;;;4.03;;
76196;SDS011;64974;53.144;17.962;2022-12-29T05:04:33;6.75;;;3.92;;
76196;SDS011;64974;53.144;17.962;2022-12-29T05:06:58;6.50;;;3.45;;
76196;SDS011;64974;53.144;17.962;2022-12-29T05:09:23;7.63;;;3.80;;
76196;SDS011;64974;53.144;17.962;2022-12-29T05:11:49;9.23;;;3.92;;
76196;SDS011;64974;53.144;17.962;2022-12-29T05:14:14;6.88;;;4.20;;
76196;SDS011;64974;53.144;17.962;2022-12-29T05:16:40;8.93;;;4.43;;
76196;SDS011;64974;53.144;17.962;2022-12-29T05:19:05;8.63;;;4.53;;
76196;SDS011;64974;53.144;17.962;2022-12-29T05:21:33;7.95;;;4.18;;
76196;SDS011;64974;53.144;17.962;2022-12-29T05:23:58;7.85;;;4.25;;
76196;SDS011;64974;53.144;17.962;2022-12-29T05:26:24;9.18;;;3.85;;
76196;SDS011;64974;53.144;17.962;2022-12-29T05:28:49;9.43;;;4.15;;
76196;SDS011;64974;53.144;17.962;2022-12-29T05:31:15;7.47;;;3.72;;
76196;SDS011;64974;53.144;17.962;2022-12-29T05:33:40;7.90;;;3.60;;
76196;SDS011;64974;53.144;17.962;2022-12-29T05:36:06;8.65;;;4.18;;
76196;SDS011;64974;53.144;17.962;2022-12-29T05:38:32;9.82;;;4.60;;
76196;SDS011;64974;53.144;17.962;2022-12-29T05:40:58;5.82;;;3.08;;
76196;SDS011;64974;53.144;17.962;2022-12-29T05:43:23;6.95;;;3.42;;
76196;SDS011;64974;53.144;17.962;2022-12-29T05:45:49;6.55;;;3.75;;
76196;SDS011;64974;53.144;17.962;2022-12-29T05:48:14;6.78;;;3.72;;
76196;SDS011;64974;53.144;17.962;2022-12-29T05:50:40;7.22;;;3.78;;
76196;SDS011;64974;53.144;17.962;2022-12-29T05:53:08;7.75;;;3.05;;
76196;SDS011;64974;53.144;17.962;2022-12-29T05:55:34;7.75;;;3.85;;
76196;SDS011;64974;53.144;17.962;2022-12-29T05:57:59;7.82;;;3.65;;
76196;SDS011;64974;53.144;17.962;2022-12-29T06:00:25;7.65;;;3.55;;
76196;SDS011;64974;53.144;17.962;2022-12-29T06:02:50;6.13;;;3.13;;
76196;SDS011;64974;53.144;17.962;2022-12-29T06:05:15;5.13;;;2.70;;
76196;SDS011;64974;53.144;17.962;2022-12-29T06:07:41;7.00;;;3.58;;
76196;SDS011;64974;53.144;17.962;2022-12-29T06:10:06;9.50;;;3.90;;
76196;SDS011;64974;53.144;17.962;2022-12-29T06:12:32;6.82;;;3.88;;
76196;SDS011;64974;53.144;17.962;2022-12-29T06:14:57;12.60;;;4.05;;
76196;SDS011;64974;53.144;17.962;2022-12-29T06:17:22;7.38;;;3.80;;
76196;SDS011;64974;53.144;17.962;2022-12-29T06:19:48;7.95;;;3.75;;
76196;SDS011;64974;53.144;17.962;2022-12-29T06:22:13;8.50;;;3.67;;
76196;SDS011;64974;53.144;17.962;2022-12-29T06:24:39;5.97;;;2.88;;
76196;SDS011;64974;53.144;17.962;2022-12-29T06:27:04;7.85;;;3.15;;
76196;SDS011;64974;53.144;17.962;2022-12-29T06:29:29;9.35;;;3.33;;
76196;SDS011;64974;53.144;17.962;2022-12-29T06:31:55;7.67;;;3.50;;
76196;SDS011;64974;53.144;17.962;2022-12-29T06:34:23;5.88;;;3.25;;
76196;SDS011;64974;53.144;17.962;2022-12-29T06:36:49;6.15;;;3.10;;
76196;SDS011;64974;53.144;17.962;2022-12-29T06:39:15;10.23;;;3.13;;
76196;SDS011;64974;53.144;17.962;2022-12-29T06:41:40;8.07;;;3.90;;
76196;SDS011;64974;53.144;17.962;2022-12-29T06:44:05;8.45;;;4.07;;
76196;SDS011;64974;53.144;17.962;2022-12-29T06:46:31;7.78;;;3.85;;
76196;SDS011;64974;53.144;17.962;2022-12-29T06:48:59;8.70;;;3.70;;
76196;SDS011;64974;53.144;17.962;2022-12-29T06:51:24;6.40;;;3.67;;
76196;SDS011;64974;53.144;17.962;2022-12-29T06:53:50;9.25;;;3.80;;
76196;SDS011;64974;53.144;17.962;2022-12-29T06:56:15;9.33;;;3.70;;
76196;SDS011;64974;53.144;17.962;2022-12-29T06:58:40;9.02;;;3.97;;
76196;SDS011;64974;53.144;17.962;2022-12-29T07:01:06;10.35;;;3.85;;
76196;SDS011;64974;53.144;17.962;2022-12-29T07:03:31;7.72;;;4.07;;
76196;SDS011;64974;53.144;17.962;2022-12-29T07:05:57;10.82;;;4.72;;
76196;SDS011;64974;53.144;17.962;2022-12-29T07:08:23;14.98;;;5.45;;
76196;SDS011;64974;53.144;17.962;2022-12-29T07:10:48;12.13;;;5.80;;
76196;SDS011;64974;53.144;17.962;2022-12-29T07:13:14;11.83;;;4.90;;
76196;SDS011;64974;53.144;17.962;2022-12-29T07:15:39;10.45;;;5.65;;
76196;SDS011;64974;53.144;17.962;2022-12-29T07:18:04;10.63;;;5.47;;
76196;SDS011;64974;53.144;17.962;2022-12-29T07:20:30;9.80;;;4.32;;
76196;SDS011;64974;53.144;17.962;2022-12-29T07:22:55;8.43;;;3.70;;
76196;SDS011;64974;53.144;17.962;2022-12-29T07:25:21;13.30;;;5.18;;
76196;SDS011;64974;53.144;17.962;2022-12-29T07:27:46;9.40;;;4.28;;
76196;SDS011;64974;53.144;17.962;2022-12-29T07:30:12;22.00;;;14.32;;
76196;SDS011;64974;53.144;17.962;2022-12-29T07:32:37;22.33;;;15.93;;
76196;SDS011;64974;53.144;17.962;2022-12-29T07:35:03;12.02;;;8.60;;
76196;SDS011;64974;53.144;17.962;2022-12-29T07:37:28;7.53;;;4.32;;
76196;SDS011;64974;53.144;17.962;2022-12-29T07:39:54;6.38;;;3.83;;
76196;SDS011;64974;53.144;17.962;2022-12-29T07:42:19;7.10;;;3.47;;
76196;SDS011;64974;53.144;17.962;2022-12-29T07:44:44;9.10;;;4.13;;
76196;SDS011;64974;53.144;17.962;2022-12-29T07:47:10;6.70;;;3.47;;
76196;SDS011;64974;53.144;17.962;2022-12-29T07:49:35;7.70;;;3.53;;
76196;SDS011;64974;53.144;17.962;2022-12-29T07:52:00;10.07;;;4.20;;
76196;SDS011;64974;53.144;17.962;2022-12-29T07:54:26;7.95;;;4.25;;
76196;SDS011;64974;53.144;17.962;2022-12-29T07:56:51;14.32;;;7.03;;
76196;SDS011;64974;53.144;17.962;2022-12-29T07:59:16;8.02;;;4.03;;
76196;SDS011;64974;53.144;17.962;2022-12-29T08:01:42;7.80;;;4.05;;
76196;SDS011;64974;53.144;17.962;2022-12-29T08:04:07;9.20;;;3.70;;
76196;SDS011;64974;53.144;17.962;2022-12-29T08:06:33;6.25;;;3.38;;
76196;SDS011;64974;53.144;17.962;2022-12-29T08:08:58;7.90;;;4.18;;
76196;SDS011;64974;53.144;17.962;2022-12-29T08:11:25;7.22;;;4.10;;
76196;SDS011;64974;53.144;17.962;2022-12-29T08:13:50;7.32;;;4.22;;
76196;SDS011;64974;53.144;17.962;2022-12-29T08:16:16;8.13;;;3.85;;
76196;SDS011;64974;53.144;17.962;2022-12-29T08:18:41;7.70;;;3.50;;
76196;SDS011;64974;53.144;17.962;2022-12-29T08:21:06;7.03;;;3.20;;
76196;SDS011;64974;53.144;17.962;2022-12-29T08:23:32;7.03;;;3.20;;
76196;SDS011;64974;53.144;17.962;2022-12-29T08:25:58;7.05;;;2.95;;
76196;SDS011;64974;53.144;17.962;2022-12-29T08:28:24;5.95;;;2.92;;
76196;SDS011;64974;53.144;17.962;2022-12-29T08:30:49;6.32;;;3.10;;
76196;SDS011;64974;53.144;17.962;2022-12-29T08:33:14;6.22;;;2.75;;
76196;SDS011;64974;53.144;17.962;2022-12-29T08:35:40;7.05;;;3.58;;
76196;SDS011;64974;53.144;17.962;2022-12-29T08:38:05;7.70;;;3.42;;
76196;SDS011;64974;53.144;17.962;2022-12-29T08:40:30;7.10;;;3.17;;
76196;SDS011;64974;53.144;17.962;2022-12-29T08:42:56;8.70;;;3.45;;
76196;SDS011;64974;53.144;17.962;2022-12-29T08:45:21;9.68;;;4.03;;
76196;SDS011;64974;53.144;17.962;2022-12-29T08:47:46;9.57;;;4.72;;
76196;SDS011;64974;53.144;17.962;2022-12-29T08:50:12;6.40;;;3.40;;
76196;SDS011;64974;53.144;17.962;2022-12-29T08:52:37;6.68;;;3.72;;
76196;SDS011;64974;53.144;17.962;2022-12-29T08:55:03;7.57;;;3.70;;
76196;SDS011;64974;53.144;17.962;2022-12-29T08:57:28;8.25;;;3.67;;
76196;SDS011;64974;53.144;17.962;2022-12-29T08:59:54;7.50;;;3.47;;
76196;SDS011;64974;53.144;17.962;2022-12-29T09:02:19;9.77;;;4.07;;
76196;SDS011;64974;53.144;17.962;2022-12-29T09:04:45;8.95;;;4.15;;
76196;SDS011;64974;53.144;17.962;2022-12-29T09:07:10;7.97;;;4.13;;
76196;SDS011;64974;53.144;17.962;2022-12-29T09:09:35;10.50;;;3.75;;
76196;SDS011;64974;53.144;17.962;2022-12-29T09:12:01;7.90;;;3.72;;
76196;SDS011;64974;53.144;17.962;2022-12-29T09:14:26;6.32;;;3.42;;
76196;SDS011;64974;53.144;17.962;2022-12-29T09:16:52;7.13;;;3.63;;
76196;SDS011;64974;53.144;17.962;2022-12-29T09:19:35;7.10;;;3.50;;
76196;SDS011;64974;53.144;17.962;2022-12-29T09:22:01;9.98;;;3.45;;
76196;SDS011;64974;53.144;17.962;2022-12-29T09:24:26;9.65;;;3.42;;
76196;SDS011;64974;53.144;17.962;2022-12-29T09:26:51;8.10;;;3.53;;
76196;SDS011;64974;53.144;17.962;2022-12-29T09:29:17;11.25;;;4.30;;
76196;SDS011;64974;53.144;17.962;2022-12-29T09:31:42;5.97;;;3.15;;
76196;SDS011;64974;53.144;17.962;2022-12-29T09:34:08;9.77;;;3.80;;
76196;SDS011;64974;53.144;17.962;2022-12-29T09:36:33;8.93;;;3.53;;
76196;SDS011;64974;53.144;17.962;2022-12-29T09:38:58;8.45;;;3.55;;
76196;SDS011;64974;53.144;17.962;2022-12-29T09:41:25;8.02;;;3.80;;
76196;SDS011;64974;53.144;17.962;2022-12-29T09:46:29;8.13;;;3.65;;
76196;SDS011;64974;53.144;17.962;2022-12-29T09:49:06;7.28;;;3.90;;
76196;SDS011;64974;53.144;17.962;2022-12-29T09:51:38;8.85;;;3.22;;
76196;SDS011;64974;53.144;17.962;2022-12-29T09:54:26;8.90;;;4.10;;
76196;SDS011;64974;53.144;17.962;2022-12-29T09:56:56;8.52;;;3.67;;
76196;SDS011;64974;53.144;17.962;2022-12-29T09:59:26;8.68;;;3.72;;
76196;SDS011;64974;53.144;17.962;2022-12-29T10:04:48;7.45;;;3.65;;
76196;SDS011;64974;53.144;17.962;2022-12-29T10:07:19;6.85;;;3.20;;
76196;SDS011;64974;53.144;17.962;2022-12-29T10:09:56;9.13;;;3.40;;
76196;SDS011;64974;53.144;17.962;2022-12-29T10:15:29;10.63;;;4.20;;
76196;SDS011;64974;53.144;17.962;2022-12-29T10:18:11;8.23;;;3.33;;
76196;SDS011;64974;53.144;17.962;2022-12-29T10:23:38;9.55;;;3.53;;
76196;SDS011;64974;53.144;17.962;2022-12-29T10:26:11;6.53;;;2.70;;
76196;SDS011;64974;53.144;17.962;2022-12-29T10:28:40;6.53;;;3.60;;
76196;SDS011;64974;53.144;17.962;2022-12-29T10:31:54;8.40;;;4.03;;
76196;SDS011;64974;53.144;17.962;2022-12-29T10:37:38;7.25;;;3.15;;
76196;SDS011;64974;53.144;17.962;2022-12-29T10:39:53;6.38;;;3.58;;
76196;SDS011;64974;53.144;17.962;2022-12-29T10:42:21;7.68;;;3.80;;
76196;SDS011;64974;53.144;17.962;2022-12-29T10:44:49;9.25;;;3.63;;
76196;SDS011;64974;53.144;17.962;2022-12-29T10:47:16;8.10;;;3.60;;
76196;SDS011;64974;53.144;17.962;2022-12-29T10:49:45;6.18;;;3.40;;
76196;SDS011;64974;53.144;17.962;2022-12-29T10:52:12;10.20;;;4.20;;
76196;SDS011;64974;53.144;17.962;2022-12-29T10:54:41;8.45;;;4.10;;
76196;SDS011;64974;53.144;17.962;2022-12-29T10:57:24;11.90;;;6.30;;
76196;SDS011;64974;53.144;17.962;2022-12-29T10:59:50;8.40;;;4.00;;
76196;SDS011;64974;53.144;17.962;2022-12-29T11:02:41;9.77;;;4.28;;
76196;SDS011;64974;53.144;17.962;2022-12-29T11:05:21;9.45;;;4.10;;
76196;SDS011;64974;53.144;17.962;2022-12-29T11:07:49;7.80;;;4.43;;
76196;SDS011;64974;53.144;17.962;2022-12-29T11:13:14;9.48;;;4.57;;
76196;SDS011;64974;53.144;17.962;2022-12-29T11:15:42;9.13;;;4.80;;
76196;SDS011;64974;53.144;17.962;2022-12-29T11:18:25;8.40;;;4.35;;
76196;SDS011;64974;53.144;17.962;2022-12-29T11:20:55;11.18;;;4.80;;
76196;SDS011;64974;53.144;17.962;2022-12-29T11:23:37;7.93;;;4.18;;
76196;SDS011;64974;53.144;17.962;2022-12-29T11:26:12;7.30;;;3.55;;
76196;SDS011;64974;53.144;17.962;2022-12-29T11:28:40;7.97;;;4.10;;
76196;SDS011;64974;53.144;17.962;2022-12-29T11:31:08;10.48;;;4.88;;
76196;SDS011;64974;53.144;17.962;2022-12-29T11:33:34;11.38;;;4.82;;
76196;SDS011;64974;53.144;17.962;2022-12-29T11:36:05;9.43;;;4.55;;
76196;SDS011;64974;53.144;17.962;2022-12-29T11:38:54;9.65;;;4.15;;
76196;SDS011;64974;53.144;17.962;2022-12-29T11:41:23;12.10;;;4.72;;
76196;SDS011;64974;53.144;17.962;2022-12-29T11:43:49;10.77;;;4.90;;
76196;SDS011;64974;53.144;17.962;2022-12-29T11:46:27;9.15;;;4.45;;
76196;SDS011;64974;53.144;17.962;2022-12-29T11:48:59;10.60;;;4.25;;
76196;SDS011;64974;53.144;17.962;2022-12-29T11:51:41;9.82;;;4.95;;
76196;SDS011;64974;53.144;17.962;2022-12-29T11:54:09;8.50;;;4.15;;
76196;SDS011;64974;53.144;17.962;2022-12-29T11:56:42;6.30;;;3.15;;
76196;SDS011;64974;53.144;17.962;2022-12-29T11:59:23;9.23;;;3.42;;
76196;SDS011;64974;53.144;17.962;2022-12-29T12:01:52;6.90;;;3.40;;
76196;SDS011;64974;53.144;17.962;2022-12-29T12:04:18;8.55;;;4.63;;
76196;SDS011;64974;53.144;17.962;2022-12-29T12:06:50;8.52;;;4.60;;
76196;SDS011;64974;53.144;17.962;2022-12-29T12:09:27;9.68;;;4.25;;
76196;SDS011;64974;53.144;17.962;2022-12-29T12:11:56;8.85;;;4.40;;
76196;SDS011;64974;53.144;17.962;2022-12-29T12:16:54;10.07;;;3.72;;
76196;SDS011;64974;53.144;17.962;2022-12-29T12:19:29;12.30;;;5.15;;
76196;SDS011;64974;53.144;17.962;2022-12-29T12:27:19;11.25;;;3.78;;
76196;SDS011;64974;53.144;17.962;2022-12-29T12:32:39;11.18;;;4.30;;
76196;SDS011;64974;53.144;17.962;2022-12-29T12:48:58;10.60;;;4.78;;
76196;SDS011;64974;53.144;17.962;2022-12-29T12:59:56;18.42;;;10.07;;
76196;SDS011;64974;53.144;17.962;2022-12-29T13:07:54;9.95;;;4.50;;
76196;SDS011;64974;53.144;17.962;2022-12-29T13:10:44;9.70;;;4.38;;
76196;SDS011;64974;53.144;17.962;2022-12-29T13:21:24;10.77;;;4.65;;
76196;SDS011;64974;53.144;17.962;2022-12-29T13:24:24;7.00;;;4.00;;
76196;SDS011;64974;53.144;17.962;2022-12-29T13:26:52;10.05;;;4.70;;
76196;SDS011;64974;53.144;17.962;2022-12-29T13:29:22;11.00;;;5.18;;
76196;SDS011;64974;53.144;17.962;2022-12-29T13:34:53;10.98;;;5.07;;
76196;SDS011;64974;53.144;17.962;2022-12-29T13:37:26;11.05;;;5.78;;
76196;SDS011;64974;53.144;17.962;2022-12-29T13:39:57;13.68;;;5.10;;
76196;SDS011;64974;53.144;17.962;2022-12-29T13:42:24;12.77;;;5.25;;
76196;SDS011;64974;53.144;17.962;2022-12-29T13:47:33;15.95;;;6.95;;
76196;SDS011;64974;53.144;17.962;2022-12-29T13:50:02;14.18;;;6.60;;
76196;SDS011;64974;53.144;17.962;2022-12-29T14:00:30;12.75;;;5.95;;
76196;SDS011;64974;53.144;17.962;2022-12-29T14:06:12;12.25;;;5.95;;
76196;SDS011;64974;53.144;17.962;2022-12-29T14:08:41;22.70;;;20.15;;
76196;SDS011;64974;53.144;17.962;2022-12-29T14:11:07;15.10;;;12.48;;
76196;SDS011;64974;53.144;17.962;2022-12-29T14:13:36;18.63;;;14.63;;
76196;SDS011;64974;53.144;17.962;2022-12-29T14:16:03;12.00;;;6.20;;
76196;SDS011;64974;53.144;17.962;2022-12-29T14:18:30;12.10;;;6.13;;
76196;SDS011;64974;53.144;17.962;2022-12-29T14:20:58;12.02;;;5.80;;
76196;SDS011;64974;53.144;17.962;2022-12-29T14:23:37;13.57;;;6.18;;
76196;SDS011;64974;53.144;17.962;2022-12-29T14:28:40;11.83;;;6.23;;
76196;SDS011;64974;53.144;17.962;2022-12-29T14:36:37;13.23;;;5.68;;
76196;SDS011;64974;53.144;17.962;2022-12-29T14:39:05;18.35;;;9.35;;
76196;SDS011;64974;53.144;17.962;2022-12-29T14:44:34;14.97;;;6.50;;
76196;SDS011;64974;53.144;17.962;2022-12-29T14:50:05;12.70;;;6.65;;
76196;SDS011;64974;53.144;17.962;2022-12-29T14:52:45;21.75;;;10.18;;
76196;SDS011;64974;53.144;17.962;2022-12-29T14:55:41;40.78;;;15.60;;
76196;SDS011;64974;53.144;17.962;2022-12-29T14:58:15;21.83;;;9.23;;
76196;SDS011;64974;53.144;17.962;2022-12-29T15:00:44;14.23;;;6.85;;
76196;SDS011;64974;53.144;17.962;2022-12-29T15:03:23;17.90;;;8.10;;
76196;SDS011;64974;53.144;17.962;2022-12-29T15:05:51;15.95;;;6.88;;
76196;SDS011;64974;53.144;17.962;2022-12-29T15:08:21;17.58;;;6.57;;
76196;SDS011;64974;53.144;17.962;2022-12-29T15:10:53;19.17;;;7.30;;
76196;SDS011;64974;53.144;17.962;2022-12-29T15:13:22;15.50;;;6.05;;
76196;SDS011;64974;53.144;17.962;2022-12-29T15:15:50;13.35;;;6.20;;
76196;SDS011;64974;53.144;17.962;2022-12-29T15:18:28;11.20;;;5.07;;
76196;SDS011;64974;53.144;17.962;2022-12-29T15:21:02;11.52;;;6.00;;
76196;SDS011;64974;53.144;17.962;2022-12-29T15:23:29;24.75;;;7.53;;
76196;SDS011;64974;53.144;17.962;2022-12-29T15:26:00;14.20;;;6.53;;
76196;SDS011;64974;53.144;17.962;2022-12-29T15:28:28;13.15;;;6.32;;
76196;SDS011;64974;53.144;17.962;2022-12-29T15:31:14;19.15;;;7.78;;
76196;SDS011;64974;53.144;17.962;2022-12-29T15:33:41;15.30;;;7.18;;
76196;SDS011;64974;53.144;17.962;2022-12-29T15:36:21;16.90;;;8.18;;
76196;SDS011;64974;53.144;17.962;2022-12-29T15:38:48;16.30;;;8.02;;
76196;SDS011;64974;53.144;17.962;2022-12-29T15:41:29;17.17;;;7.50;;
76196;SDS011;64974;53.144;17.962;2022-12-29T15:46:34;15.20;;;5.97;;
76196;SDS011;64974;53.144;17.962;2022-12-29T15:49:00;47.75;;;17.23;;
76196;SDS011;64974;53.144;17.962;2022-12-29T15:51:31;23.25;;;8.30;;
76196;SDS011;64974;53.144;17.962;2022-12-29T15:53:58;37.33;;;13.52;;
76196;SDS011;64974;53.144;17.962;2022-12-29T15:56:24;34.40;;;14.70;;
76196;SDS011;64974;53.144;17.962;2022-12-29T15:58:53;18.67;;;8.52;;
76196;SDS011;64974;53.144;17.962;2022-12-29T16:01:20;19.95;;;8.77;;
76196;SDS011;64974;53.144;17.962;2022-12-29T16:04:00;24.92;;;11.00;;
76196;SDS011;64974;53.144;17.962;2022-12-29T16:06:33;11.63;;;5.95;;
76196;SDS011;64974;53.144;17.962;2022-12-29T16:09:29;15.20;;;6.03;;
76196;SDS011;64974;53.144;17.962;2022-12-29T16:12:02;17.02;;;7.75;;
76196;SDS011;64974;53.144;17.962;2022-12-29T16:14:32;12.05;;;5.28;;
76196;SDS011;64974;53.144;17.962;2022-12-29T16:17:00;17.90;;;8.20;;
76196;SDS011;64974;53.144;17.962;2022-12-29T16:19:29;21.50;;;9.20;;
76196;SDS011;64974;53.144;17.962;2022-12-29T16:21:58;26.10;;;10.45;;
76196;SDS011;64974;53.144;17.962;2022-12-29T16:24:25;19.40;;;8.50;;
76196;SDS011;64974;53.144;17.962;2022-12-29T16:26:53;18.90;;;8.13;;
76196;SDS011;64974;53.144;17.962;2022-12-29T16:29:22;22.27;;;9.27;;
76196;SDS011;64974;53.144;17.962;2022-12-29T16:31:54;16.50;;;7.53;;
76196;SDS011;64974;53.144;17.962;2022-12-29T16:37:24;14.43;;;6.78;;
76196;SDS011;64974;53.144;17.962;2022-12-29T16:39:54;17.35;;;7.65;;
76196;SDS011;64974;53.144;17.962;2022-12-29T16:42:33;13.52;;;6.97;;
76196;SDS011;64974;53.144;17.962;2022-12-29T16:45:16;10.90;;;6.30;;
76196;SDS011;64974;53.144;17.962;2022-12-29T16:50:30;14.25;;;7.60;;
76196;SDS011;64974;53.144;17.962;2022-12-29T16:52:56;9.25;;;5.38;;
76196;SDS011;64974;53.144;17.962;2022-12-29T16:55:23;12.15;;;6.57;;
76196;SDS011;64974;53.144;17.962;2022-12-29T16:57:49;13.00;;;6.18;;
76196;SDS011;64974;53.144;17.962;2022-12-29T17:00:23;12.40;;;5.95;;
76196;SDS011;64974;53.144;17.962;2022-12-29T17:02:50;11.68;;;5.80;;
76196;SDS011;64974;53.144;17.962;2022-12-29T17:05:18;13.68;;;6.32;;
76196;SDS011;64974;53.144;17.962;2022-12-29T17:07:44;14.85;;;6.50;;
76196;SDS011;64974;53.144;17.962;2022-12-29T17:10:10;24.48;;;9.40;;
76196;SDS011;64974;53.144;17.962;2022-12-29T17:12:35;21.38;;;9.75;;
76196;SDS011;64974;53.144;17.962;2022-12-29T17:15:10;18.63;;;8.88;;
76196;SDS011;64974;53.144;17.962;2022-12-29T17:17:44;18.35;;;8.68;;
76196;SDS011;64974;53.144;17.962;2022-12-29T17:25:18;14.57;;;6.13;;
76196;SDS011;64974;53.144;17.962;2022-12-29T17:27:46;22.25;;;11.93;;
76196;SDS011;64974;53.144;17.962;2022-12-29T17:30:16;20.40;;;12.70;;
76196;SDS011;64974;53.144;17.962;2022-12-29T17:32:43;16.27;;;7.32;;
76196;SDS011;64974;53.144;17.962;2022-12-29T17:35:16;14.30;;;8.18;;
76196;SDS011;64974;53.144;17.962;2022-12-29T17:37:43;16.17;;;8.30;;
76196;SDS011;64974;53.144;17.962;2022-12-29T17:40:16;16.58;;;6.80;;
76196;SDS011;64974;53.144;17.962;2022-12-29T17:42:51;13.50;;;6.18;;
76196;SDS011;64974;53.144;17.962;2022-12-29T17:45:36;17.00;;;6.88;;
76196;SDS011;64974;53.144;17.962;2022-12-29T17:48:04;14.60;;;7.10;;
76196;SDS011;64974;53.144;17.962;2022-12-29T17:50:38;17.88;;;6.95;;
76196;SDS011;64974;53.144;17.962;2022-12-29T17:53:04;14.93;;;8.02;;
76196;SDS011;64974;53.144;17.962;2022-12-29T17:55:31;13.80;;;6.88;;
76196;SDS011;64974;53.144;17.962;2022-12-29T17:57:57;12.02;;;6.90;;
76196;SDS011;64974;53.144;17.962;2022-12-29T18:00:27;13.15;;;7.15;;
76196;SDS011;64974;53.144;17.962;2022-12-29T18:02:54;11.75;;;6.13;;
76196;SDS011;64974;53.144;17.962;2022-12-29T18:05:25;19.15;;;8.60;;
76196;SDS011;64974;53.144;17.962;2022-12-29T18:07:52;15.68;;;7.60;;
76196;SDS011;64974;53.144;17.962;2022-12-29T18:10:19;12.45;;;6.18;;
76196;SDS011;64974;53.144;17.962;2022-12-29T18:12:49;15.57;;;6.72;;
76196;SDS011;64974;53.144;17.962;2022-12-29T18:15:18;11.55;;;5.47;;
76196;SDS011;64974;53.144;17.962;2022-12-29T18:17:45;14.27;;;7.78;;
76196;SDS011;64974;53.144;17.962;2022-12-29T18:20:10;14.32;;;6.65;;
76196;SDS011;64974;53.144;17.962;2022-12-29T18:22:36;14.38;;;6.57;;
76196;SDS011;64974;53.144;17.962;2022-12-29T18:25:01;15.10;;;8.57;;
76196;SDS011;64974;53.144;17.962;2022-12-29T18:27:27;13.35;;;7.35;;